createdAt,value
2023-12-12T00:01:59.019Z,91.66
2023-12-12T00:04:30.199Z,91.84
2023-12-12T00:07:01.266Z,91.84
2023-12-12T00:09:32.423Z,91.68
2023-12-12T00:12:03.807Z,91.70
2023-12-12T00:14:34.953Z,91.74
2023-12-12T00:17:06.298Z,91.77
2023-12-12T00:19:42.092Z,91.99
2023-12-12T00:22:13.840Z,91.88
2023-12-12T00:24:44.896Z,91.72
2023-12-12T00:27:16.000Z,91.57
2023-12-12T00:29:47.512Z,91.59
2023-12-12T00:32:18.625Z,91.57
2023-12-12T00:34:50.087Z,91.49
2023-12-12T00:37:21.254Z,91.14
2023-12-12T00:39:52.340Z,91.16
2023-12-12T00:42:24.378Z,91.09
2023-12-12T00:44:56.136Z,90.94
2023-12-12T00:47:27.190Z,90.79
2023-12-12T00:49:58.390Z,90.86
2023-12-12T00:52:31.068Z,90.81
2023-12-12T00:55:02.610Z,90.58
2023-12-12T00:57:34.345Z,90.71
2023-12-12T01:00:06.432Z,90.78
2023-12-12T01:02:37.522Z,90.54
2023-12-12T01:05:09.999Z,90.52
2023-12-12T01:07:41.248Z,90.35
2023-12-12T01:10:12.867Z,90.45
2023-12-12T01:12:44.000Z,90.40
2023-12-12T01:15:14.986Z,90.64
2023-12-12T01:17:46.233Z,90.52
2023-12-12T01:20:17.528Z,90.68
2023-12-12T01:22:48.690Z,90.73
2023-12-12T01:25:19.868Z,90.30
2023-12-12T01:27:51.025Z,90.52
2023-12-12T01:30:22.127Z,90.26
2023-12-12T01:32:53.250Z,90.04
2023-12-12T01:35:24.366Z,90.21
2023-12-12T01:37:55.393Z,90.34
2023-12-12T01:40:26.903Z,89.94
2023-12-12T01:43:07.366Z,89.95
2023-12-12T01:45:38.679Z,89.87
2023-12-12T01:48:09.859Z,89.53
2023-12-12T01:50:41.106Z,89.38
2023-12-12T01:53:12.396Z,89.28
2023-12-12T01:55:44.088Z,89.33
2023-12-12T01:58:15.325Z,89.28
2023-12-12T02:00:47.259Z,89.36
2023-12-12T02:03:19.043Z,89.45
2023-12-12T02:05:50.557Z,89.46
2023-12-12T02:08:21.833Z,89.58
2023-12-12T02:10:53.309Z,89.45
2023-12-12T02:13:24.405Z,89.30
2023-12-12T02:15:55.603Z,89.34
2023-12-12T02:18:26.818Z,89.36
2023-12-12T02:21:01.403Z,89.42
2023-12-12T02:23:33.539Z,89.59
2023-12-12T02:26:05.190Z,89.27
2023-12-12T02:28:36.274Z,89.31
2023-12-12T02:31:07.650Z,89.33
2023-12-12T02:33:39.105Z,89.17
2023-12-12T02:36:12.104Z,89.61
2023-12-12T02:38:43.088Z,89.54
2023-12-12T02:41:14.489Z,89.19
2023-12-12T02:43:45.513Z,89.33
2023-12-12T02:46:16.569Z,88.72
2023-12-12T02:48:47.741Z,88.93
2023-12-12T02:51:19.113Z,88.83
2023-12-12T02:53:50.189Z,89.01
2023-12-12T02:56:21.092Z,88.69
2023-12-12T02:58:52.184Z,89.02
2023-12-12T03:01:23.878Z,89.09
2023-12-12T03:03:55.015Z,89.02
2023-12-12T03:06:26.045Z,88.90
2023-12-12T03:08:57.319Z,88.70
2023-12-12T03:13:59.596Z,88.86
2023-12-12T03:16:30.564Z,88.70
2023-12-12T03:19:01.746Z,88.86
2023-12-12T03:21:33.114Z,88.60
2023-12-12T03:24:04.227Z,88.56
2023-12-12T03:26:35.472Z,88.65
2023-12-12T03:29:07.096Z,88.62
2023-12-12T03:31:38.275Z,88.62
2023-12-12T03:34:09.928Z,88.47
2023-12-12T03:36:44.590Z,88.79
2023-12-12T03:39:16.253Z,88.28
2023-12-12T03:41:47.520Z,88.27
2023-12-12T03:44:18.594Z,88.38
2023-12-12T03:46:49.650Z,88.65
2023-12-12T03:49:21.104Z,88.34
2023-12-12T03:51:52.238Z,88.60
2023-12-12T03:54:23.367Z,88.59
2023-12-12T03:56:55.451Z,88.53
2023-12-12T03:59:26.937Z,88.24
2023-12-12T04:01:58.731Z,88.42
2023-12-12T04:04:29.860Z,88.44
2023-12-12T04:07:01.473Z,88.22
2023-12-12T04:09:32.910Z,88.36
2023-12-12T04:12:04.028Z,88.40
2023-12-12T04:14:35.471Z,88.45
2023-12-12T04:17:07.360Z,88.46
2023-12-12T04:19:38.708Z,88.23
2023-12-12T04:22:09.715Z,88.47
2023-12-12T04:24:41.057Z,88.30
2023-12-12T04:27:12.159Z,88.53
2023-12-12T04:29:43.263Z,88.39
2023-12-12T04:32:14.346Z,88.18
2023-12-12T04:34:46.875Z,88.15
2023-12-12T04:37:17.956Z,88.42
2023-12-12T04:39:49.302Z,88.25
2023-12-12T04:42:20.967Z,88.22
2023-12-12T04:44:52.180Z,88.14
2023-12-12T04:47:23.565Z,88.12
2023-12-12T04:49:57.686Z,88.24
2023-12-12T04:52:29.537Z,88.26
2023-12-12T04:55:01.088Z,88.04
2023-12-12T04:57:32.293Z,88.10
2023-12-12T05:00:03.934Z,88.23
2023-12-12T05:02:35.083Z,88.09
2023-12-12T05:05:06.463Z,88.11
2023-12-12T05:07:37.754Z,88.27
2023-12-12T05:10:10.499Z,87.97
2023-12-12T05:12:41.632Z,88.05
2023-12-12T05:15:13.895Z,87.97
2023-12-12T05:17:45.815Z,87.86
2023-12-12T05:20:17.271Z,87.89
2023-12-12T05:22:48.824Z,87.93
2023-12-12T05:25:21.228Z,88.23
2023-12-12T05:27:53.265Z,87.95
2023-12-12T05:30:27.348Z,88.13
2023-12-12T05:32:58.419Z,87.85
2023-12-12T05:35:29.960Z,88.03
2023-12-12T05:38:01.143Z,88.02
2023-12-12T05:40:32.779Z,88.01
2023-12-12T05:43:04.517Z,88.13
2023-12-12T05:45:36.532Z,88.00
2023-12-12T05:48:08.632Z,88.03
2023-12-12T05:50:40.163Z,87.93
2023-12-12T05:53:12.115Z,88.01
2023-12-12T05:55:43.210Z,87.79
2023-12-12T05:58:14.727Z,87.93
2023-12-12T06:00:45.786Z,87.89
2023-12-12T06:03:16.887Z,87.88
2023-12-12T06:05:48.417Z,88.07
2023-12-12T06:08:19.498Z,87.62
2023-12-12T06:10:50.705Z,87.74
2023-12-12T06:13:21.916Z,87.83
2023-12-12T06:15:53.051Z,87.86
2023-12-12T06:18:24.176Z,87.66
2023-12-12T06:20:55.464Z,87.78
2023-12-12T06:23:26.866Z,87.77
2023-12-12T06:25:58.209Z,87.54
2023-12-12T06:28:29.246Z,87.59
2023-12-12T06:31:01.077Z,87.63
2023-12-12T06:33:33.113Z,87.57
2023-12-12T06:36:04.444Z,87.71
2023-12-12T06:38:35.994Z,87.57
2023-12-12T06:41:07.603Z,87.66
2023-12-12T06:43:38.549Z,87.61
2023-12-12T06:46:10.511Z,87.75
2023-12-12T06:48:42.806Z,87.79
2023-12-12T06:51:13.996Z,87.68
2023-12-12T06:53:46.186Z,87.48
2023-12-12T06:56:17.270Z,87.54
2023-12-12T06:58:48.843Z,87.59
2023-12-12T07:01:19.845Z,87.73
2023-12-12T07:03:50.749Z,87.53
2023-12-12T07:06:21.656Z,87.69
2023-12-12T07:08:54.057Z,87.33
2023-12-12T07:11:27.396Z,87.50
2023-12-12T07:13:58.566Z,87.35
2023-12-12T07:16:30.667Z,87.12
2023-12-12T07:19:04.305Z,87.40
2023-12-12T07:21:42.647Z,87.33
2023-12-12T07:24:16.089Z,87.55
2023-12-12T07:26:48.169Z,87.44
2023-12-12T07:29:21.086Z,87.32
2023-12-12T07:31:52.762Z,87.33
2023-12-12T07:34:23.782Z,87.36
2023-12-12T07:36:56.404Z,87.31
2023-12-12T07:39:27.575Z,87.40
2023-12-12T07:41:58.467Z,87.39
2023-12-12T07:44:30.558Z,87.59
2023-12-12T07:47:03.412Z,87.46
2023-12-12T07:49:34.392Z,87.46
2023-12-12T07:52:05.582Z,87.41
2023-12-12T07:54:38.226Z,87.54
2023-12-12T07:57:09.834Z,87.40
2023-12-12T07:59:42.086Z,87.02
2023-12-12T08:02:14.735Z,87.35
2023-12-12T08:04:45.763Z,87.00
2023-12-12T08:07:17.757Z,87.17
2023-12-12T08:09:48.644Z,87.14
2023-12-12T08:12:19.941Z,87.61
2023-12-12T08:14:50.973Z,87.35
2023-12-12T08:17:22.565Z,87.37
2023-12-12T08:19:53.901Z,87.65
2023-12-12T08:22:25.177Z,87.65
2023-12-12T08:24:56.430Z,87.29
2023-12-12T08:27:28.464Z,87.53
2023-12-12T08:29:59.811Z,87.67
2023-12-12T08:32:30.912Z,87.60
2023-12-12T08:35:02.923Z,87.64
2023-12-12T08:37:36.163Z,87.52
2023-12-12T08:40:09.498Z,87.68
2023-12-12T08:42:41.261Z,87.70
2023-12-12T08:45:13.093Z,87.84
2023-12-12T08:47:44.223Z,87.73
2023-12-12T08:50:16.101Z,87.91
2023-12-12T08:52:47.443Z,87.74
2023-12-12T08:55:18.603Z,87.81
2023-12-12T08:57:49.661Z,87.97
2023-12-12T09:00:21.226Z,87.75
2023-12-12T09:02:52.292Z,87.68
2023-12-12T09:05:23.415Z,87.53
2023-12-12T09:07:54.595Z,87.83
2023-12-12T09:10:26.369Z,87.76
2023-12-12T09:12:57.483Z,87.90
2023-12-12T09:15:28.552Z,87.80
2023-12-12T09:18:11.234Z,87.74
2023-12-12T09:20:50.806Z,87.77
2023-12-12T09:23:23.752Z,87.92
2023-12-12T09:25:54.818Z,87.82
2023-12-12T09:28:26.003Z,88.13
2023-12-12T09:30:58.584Z,88.04
2023-12-12T09:33:30.223Z,87.84
2023-12-12T09:36:01.345Z,87.73
2023-12-12T09:38:32.429Z,87.54
2023-12-12T09:41:04.388Z,87.94
2023-12-12T09:43:38.654Z,87.99
2023-12-12T09:46:10.068Z,87.96
2023-12-12T09:48:41.638Z,87.98
2023-12-12T09:51:14.788Z,88.05
2023-12-12T09:53:48.294Z,88.20
2023-12-12T09:56:19.905Z,88.27
2023-12-12T09:58:51.405Z,88.06
2023-12-12T10:01:24.465Z,88.32
2023-12-12T10:03:56.496Z,88.47
2023-12-12T10:06:31.870Z,88.23
2023-12-12T10:09:04.825Z,88.31
2023-12-12T10:11:36.238Z,88.23
2023-12-12T10:14:07.237Z,88.55
2023-12-12T10:16:38.382Z,88.67
2023-12-12T10:19:13.114Z,88.49
2023-12-12T10:21:44.509Z,89.61
2023-12-12T10:24:16.019Z,88.62
2023-12-12T10:26:49.028Z,88.49
2023-12-12T10:29:21.821Z,88.98
2023-12-12T10:31:53.767Z,88.93
2023-12-12T10:34:28.591Z,88.68
2023-12-12T10:37:02.025Z,91.39
2023-12-12T10:39:33.179Z,88.92
2023-12-12T10:42:04.195Z,88.74
2023-12-12T10:44:36.336Z,88.92
2023-12-12T10:47:08.099Z,88.48
2023-12-12T10:49:39.586Z,88.56
2023-12-12T10:52:12.555Z,88.23
2023-12-12T10:54:45.222Z,88.12
2023-12-12T10:57:18.933Z,88.79
2023-12-12T10:59:59.619Z,88.53
2023-12-12T11:02:36.676Z,88.69
2023-12-12T11:05:09.504Z,88.57
2023-12-12T11:07:41.449Z,88.58
2023-12-12T11:10:14.692Z,88.09
2023-12-12T11:12:48.323Z,88.52
2023-12-12T11:15:20.689Z,88.65
2023-12-12T11:17:52.372Z,88.63
2023-12-12T11:20:23.921Z,88.50
2023-12-12T11:22:55.527Z,88.84
2023-12-12T11:25:30.671Z,88.65
2023-12-12T11:28:03.315Z,88.85
2023-12-12T11:30:39.874Z,88.70
2023-12-12T11:33:12.577Z,88.91
2023-12-12T11:35:43.904Z,88.69
2023-12-12T11:38:28.631Z,88.73
2023-12-12T11:41:11.682Z,88.72
2023-12-12T11:43:43.426Z,88.80
2023-12-12T11:46:20.145Z,88.82
2023-12-12T11:48:51.504Z,88.75
2023-12-12T11:51:40.281Z,88.76
2023-12-12T11:54:19.814Z,88.73
2023-12-12T11:56:57.193Z,88.79
2023-12-12T11:59:29.288Z,88.79
2023-12-12T12:02:00.896Z,88.82
2023-12-12T12:04:32.173Z,88.82
2023-12-12T12:07:03.316Z,88.64
2023-12-12T12:09:35.321Z,88.72
2023-12-12T12:12:10.566Z,88.68
2023-12-12T12:14:41.652Z,88.88
2023-12-12T12:17:12.720Z,88.87
2023-12-12T12:19:44.969Z,88.68
2023-12-12T12:22:16.467Z,88.82
2023-12-12T12:24:48.056Z,88.91
2023-12-12T12:27:19.015Z,88.88
2023-12-12T12:30:01.853Z,88.91
2023-12-12T12:32:34.058Z,88.68
2023-12-12T12:35:09.258Z,88.58
2023-12-12T12:37:41.630Z,89.09
2023-12-12T12:40:13.232Z,88.82
2023-12-12T12:42:44.350Z,88.83
2023-12-12T12:45:19.593Z,89.03
2023-12-12T12:47:50.764Z,89.13
2023-12-12T12:50:22.425Z,89.19
2023-12-12T12:52:53.561Z,88.98
2023-12-12T12:55:25.339Z,89.21
2023-12-12T12:57:57.116Z,89.13
2023-12-12T13:00:28.915Z,89.02
2023-12-12T13:03:00.183Z,88.99
2023-12-12T13:05:31.521Z,89.36
2023-12-12T13:08:02.683Z,89.11
2023-12-12T13:10:43.301Z,89.23
2023-12-12T13:13:21.656Z,89.11
2023-12-12T13:15:53.375Z,89.39
2023-12-12T13:18:24.543Z,89.27
2023-12-12T13:20:55.600Z,89.39
2023-12-12T13:23:26.701Z,89.34
2023-12-12T13:25:57.955Z,89.54
2023-12-12T13:28:29.000Z,89.54
2023-12-12T13:31:02.366Z,89.50
2023-12-12T13:33:33.982Z,89.59
2023-12-12T13:36:06.135Z,89.52
2023-12-12T13:38:37.184Z,89.58
2023-12-12T13:41:08.710Z,89.38
2023-12-12T13:43:39.763Z,89.24
2023-12-12T13:46:11.146Z,89.42
2023-12-12T13:48:42.452Z,89.44
2023-12-12T13:51:15.143Z,89.40
2023-12-12T13:53:47.456Z,89.54
2023-12-12T13:56:19.013Z,89.30
2023-12-12T13:58:58.365Z,89.24
2023-12-12T14:01:35.593Z,89.22
2023-12-12T14:04:08.395Z,89.04
2023-12-12T14:06:39.888Z,89.41
2023-12-12T14:09:12.704Z,89.47
2023-12-12T14:11:44.182Z,89.16
2023-12-12T14:14:15.265Z,89.41
2023-12-12T14:16:48.492Z,89.46
2023-12-12T14:19:22.158Z,89.41
2023-12-12T14:21:53.627Z,89.44
2023-12-12T14:24:24.786Z,89.38
2023-12-12T14:26:55.797Z,89.48
2023-12-12T14:29:27.151Z,89.35
2023-12-12T14:31:58.236Z,89.57
2023-12-12T14:34:29.648Z,89.40
2023-12-12T14:37:02.486Z,89.39
2023-12-12T14:39:34.106Z,89.46
2023-12-12T14:42:05.796Z,89.39
2023-12-12T14:44:37.469Z,89.45
2023-12-12T14:47:09.355Z,89.27
2023-12-12T14:49:40.549Z,89.72
2023-12-12T14:52:11.590Z,89.69
2023-12-12T14:54:44.654Z,89.75
2023-12-12T14:57:20.701Z,89.71
2023-12-12T14:59:53.044Z,89.64
2023-12-12T15:02:24.478Z,89.78
2023-12-12T15:04:55.891Z,89.72
2023-12-12T15:07:27.252Z,89.54
2023-12-12T15:09:58.670Z,89.49
2023-12-12T15:12:29.989Z,89.66
2023-12-12T15:15:01.707Z,89.39
2023-12-12T15:17:33.237Z,89.62
2023-12-12T15:20:10.292Z,89.53
2023-12-12T15:22:41.859Z,89.43
2023-12-12T15:25:13.016Z,89.66
2023-12-12T15:27:44.012Z,89.73
2023-12-12T15:30:15.848Z,89.69
2023-12-12T15:32:47.562Z,89.67
2023-12-12T15:35:18.787Z,89.67
2023-12-12T15:37:50.705Z,89.62
2023-12-12T15:40:22.575Z,89.48
2023-12-12T15:42:53.617Z,89.56
2023-12-12T15:45:25.666Z,89.66
2023-12-12T15:47:57.123Z,89.53
2023-12-12T15:50:28.291Z,89.39
2023-12-12T15:52:59.590Z,89.48
2023-12-12T15:55:31.391Z,89.57
2023-12-12T15:58:03.131Z,89.47
2023-12-12T16:00:34.598Z,89.59
2023-12-12T16:03:08.132Z,89.53
2023-12-12T16:05:39.846Z,89.66
2023-12-12T16:08:13.493Z,89.20
2023-12-12T16:10:50.241Z,89.55
2023-12-12T16:13:21.844Z,89.43
2023-12-12T16:15:53.208Z,89.39
2023-12-12T16:18:25.364Z,89.38
2023-12-12T16:20:56.656Z,89.47
2023-12-12T16:23:27.966Z,89.51
2023-12-12T16:25:59.410Z,89.34
2023-12-12T16:28:30.684Z,89.11
2023-12-12T16:31:01.834Z,89.01
2023-12-12T16:33:34.732Z,88.96
2023-12-12T16:36:06.951Z,89.12
2023-12-12T16:38:37.913Z,89.08
2023-12-12T16:41:09.128Z,89.12
2023-12-12T16:43:40.283Z,88.99
2023-12-12T16:46:11.716Z,89.18
2023-12-12T16:48:43.218Z,89.10
2023-12-12T16:51:14.355Z,89.01
2023-12-12T16:53:45.718Z,89.07
2023-12-12T16:56:18.739Z,88.95
2023-12-12T16:58:52.102Z,89.01
2023-12-12T17:01:23.393Z,89.06
2023-12-12T17:03:54.981Z,89.51
2023-12-12T17:06:26.979Z,89.48
2023-12-12T17:08:58.592Z,89.21
2023-12-12T17:11:29.891Z,89.49
2023-12-12T17:14:01.053Z,89.66
2023-12-12T17:16:33.538Z,89.43
2023-12-12T17:19:04.995Z,89.41
2023-12-12T17:21:36.417Z,89.22
2023-12-12T17:24:08.150Z,89.06
2023-12-12T17:26:39.509Z,89.33
2023-12-12T17:29:15.623Z,89.40
2023-12-12T17:31:48.330Z,89.33
2023-12-12T17:34:19.718Z,89.51
2023-12-12T17:36:51.271Z,89.34
2023-12-12T17:39:22.479Z,89.36
2023-12-12T17:41:54.303Z,89.15
2023-12-12T17:44:25.621Z,89.42
2023-12-12T17:46:57.065Z,89.26
2023-12-12T17:49:28.501Z,89.34
2023-12-12T17:51:59.635Z,89.25
2023-12-12T17:54:30.665Z,89.17
2023-12-12T17:57:02.245Z,89.24
2023-12-12T17:59:33.719Z,89.21
2023-12-12T18:02:05.578Z,89.05
2023-12-12T18:04:37.192Z,89.13
2023-12-12T18:07:09.398Z,88.93
2023-12-12T18:09:41.023Z,88.96
2023-12-12T18:12:13.047Z,88.87
2023-12-12T18:14:45.179Z,88.84
2023-12-12T18:17:16.791Z,89.12
2023-12-12T18:19:48.464Z,88.72
2023-12-12T18:22:20.148Z,89.05
2023-12-12T18:24:52.622Z,88.77
2023-12-12T18:27:24.751Z,88.63
2023-12-12T18:29:56.803Z,88.78
2023-12-12T18:32:28.803Z,88.61
2023-12-12T18:35:02.678Z,88.81
2023-12-12T18:37:36.494Z,88.44
2023-12-12T18:40:10.221Z,88.57
2023-12-12T18:42:41.748Z,88.43
2023-12-12T18:45:15.745Z,88.28
2023-12-12T18:47:47.231Z,87.99
2023-12-12T18:50:19.650Z,88.55
2023-12-12T18:52:52.799Z,88.08
2023-12-12T18:55:25.496Z,88.47
2023-12-12T18:57:57.487Z,88.38
2023-12-12T19:00:28.898Z,88.18
2023-12-12T19:03:05.286Z,88.13
2023-12-12T19:05:37.329Z,88.31
2023-12-12T19:08:09.650Z,88.20
2023-12-12T19:10:42.254Z,88.15
2023-12-12T19:13:16.132Z,88.24
2023-12-12T19:15:48.162Z,88.24
2023-12-12T19:18:20.814Z,88.23
2023-12-12T19:20:52.566Z,88.20
2023-12-12T19:23:25.112Z,88.30
2023-12-12T19:25:56.879Z,88.00
2023-12-12T19:28:28.789Z,88.29
2023-12-12T19:31:01.372Z,88.18
2023-12-12T19:33:34.246Z,88.06
2023-12-12T19:36:06.097Z,87.88
2023-12-12T19:38:38.864Z,87.89
2023-12-12T19:41:10.683Z,87.97
2023-12-12T19:43:43.647Z,87.71
2023-12-12T19:46:16.534Z,88.01
2023-12-12T19:48:50.278Z,88.03
2023-12-12T19:51:21.943Z,87.82
2023-12-12T19:53:53.498Z,87.96
2023-12-12T19:56:25.595Z,88.07
2023-12-12T19:58:57.707Z,87.91
2023-12-12T20:01:30.620Z,87.94
2023-12-12T20:04:02.732Z,88.04
2023-12-12T20:06:34.222Z,88.09
2023-12-12T20:09:06.831Z,88.04
2023-12-12T20:11:41.405Z,87.90
2023-12-12T20:14:13.027Z,87.84
2023-12-12T20:16:45.374Z,87.83
2023-12-12T20:19:17.724Z,87.77
2023-12-12T20:21:49.851Z,87.60
2023-12-12T20:24:21.896Z,87.48
2023-12-12T20:26:53.998Z,87.76
2023-12-12T20:29:25.633Z,87.32
2023-12-12T20:31:58.767Z,87.60
2023-12-12T20:34:31.990Z,87.58
2023-12-12T20:37:04.386Z,87.60
2023-12-12T20:39:36.583Z,87.59
2023-12-12T20:42:09.270Z,87.42
2023-12-12T20:44:40.965Z,87.49
2023-12-12T20:47:14.566Z,87.58
2023-12-12T20:49:46.113Z,87.56
2023-12-12T20:52:17.451Z,87.45
2023-12-12T20:54:52.078Z,87.20
2023-12-12T20:57:24.272Z,87.48
2023-12-12T20:59:55.363Z,87.28
2023-12-12T21:02:26.534Z,87.29
2023-12-12T21:04:58.332Z,87.16
2023-12-12T21:07:30.450Z,87.23
2023-12-12T21:10:01.836Z,87.13
2023-12-12T21:12:33.155Z,86.74
2023-12-12T21:15:04.691Z,86.78
2023-12-12T21:17:36.545Z,86.83
2023-12-12T21:20:10.528Z,86.96
2023-12-12T21:22:43.044Z,87.12
2023-12-12T21:25:14.619Z,87.30
2023-12-12T21:27:45.740Z,87.07
2023-12-12T21:30:17.405Z,87.17
2023-12-12T21:32:48.670Z,87.17
2023-12-12T21:35:20.231Z,86.97
2023-12-12T21:37:51.732Z,87.21
2023-12-12T21:40:22.806Z,86.91
2023-12-12T21:42:54.071Z,86.84
2023-12-12T21:45:25.194Z,86.96
2023-12-12T21:47:59.227Z,86.97
2023-12-12T21:50:30.861Z,86.87
2023-12-12T21:53:02.240Z,87.05
2023-12-12T21:55:33.482Z,86.91
2023-12-12T21:58:05.454Z,87.06
2023-12-12T22:00:36.820Z,86.94
2023-12-12T22:03:07.831Z,86.79
2023-12-12T22:05:39.064Z,86.60
2023-12-12T22:08:10.105Z,86.76
2023-12-12T22:10:41.495Z,86.73
2023-12-12T22:13:15.051Z,86.62
2023-12-12T22:15:46.627Z,86.80
2023-12-12T22:18:19.577Z,86.87
2023-12-12T22:20:50.926Z,86.88
2023-12-12T22:23:24.993Z,86.90
2023-12-12T22:25:57.147Z,86.60
2023-12-12T22:28:28.584Z,86.80
2023-12-12T22:31:00.164Z,86.55
2023-12-12T22:33:31.836Z,86.81
2023-12-12T22:36:02.997Z,86.55
2023-12-12T22:38:34.407Z,86.76
2023-12-12T22:41:05.709Z,86.56
2023-12-12T22:43:38.222Z,86.53
2023-12-12T22:46:11.121Z,86.98
2023-12-12T22:48:42.358Z,86.71
2023-12-12T22:51:15.682Z,86.76
2023-12-12T22:53:47.294Z,86.63
2023-12-12T22:56:18.507Z,86.47
2023-12-12T22:58:49.779Z,86.42
2023-12-12T23:01:22.949Z,86.45
2023-12-12T23:03:54.570Z,86.43
2023-12-12T23:06:26.029Z,86.59
2023-12-12T23:08:57.156Z,86.29
2023-12-12T23:11:28.487Z,86.07
2023-12-12T23:13:59.879Z,86.18
2023-12-12T23:16:31.768Z,86.22
2023-12-12T23:19:02.962Z,86.28
2023-12-12T23:21:34.429Z,86.29
2023-12-12T23:24:06.654Z,86.06
2023-12-12T23:26:40.986Z,86.08
2023-12-12T23:29:16.983Z,86.07
2023-12-12T23:31:48.662Z,86.21
2023-12-12T23:34:19.755Z,86.22
2023-12-12T23:36:51.282Z,86.31
2023-12-12T23:39:22.751Z,86.00
2023-12-12T23:41:53.843Z,86.22
2023-12-12T23:44:25.582Z,85.97
2023-12-12T23:46:56.586Z,86.08
2023-12-12T23:49:27.634Z,86.18
2023-12-12T23:51:58.866Z,86.29
2023-12-12T23:54:30.068Z,85.96
2023-12-12T23:57:01.178Z,86.19
2023-12-12T23:59:32.580Z,86.15
